Itapagipe, Brazil
Current Conditions -  °F | °C
As of 8:00 PM on Tuesday 21 Oct 2014 (Local Time) from SBSR Reporting Station
Clear Clear  
Wind Chill: 82°   Ceiling: Unl
Heat Index: 82°   Visibility: 6mi
Dew Point: 55°   Wind: 12mph
Humidity: 39%   Direction: 180°S
Pressure: 30"   Gusts: NA
Location:  19.91°S, 49.38°W
Report Text: SBSR 212200Z 18010KT CAVOK 28/13 Q1016
Loading
Personal Weather Stations






























Interactive Weather Map
Tropical Storm Tracking
New forecast layout! Learn more

10-Day Weather Forecast

Advertisements
Track Severe Weather on mobile